createdAt,value
2022-11-20T00:01:09.062Z,-2.20
2022-11-20T00:02:11.606Z,-2.30
2022-11-20T00:03:15.458Z,-2.40
2022-11-20T00:04:18.846Z,-2.40
2022-11-20T00:05:22.106Z,-2.40
2022-11-20T00:06:25.762Z,-2.40
2022-11-20T00:07:28.430Z,-2.40
2022-11-20T00:08:31.991Z,-2.40
2022-11-20T00:09:34.560Z,-2.40
2022-11-20T00:10:39.466Z,-2.30
2022-11-20T00:11:41.702Z,-2.40
2022-11-20T00:12:45.143Z,-2.40
2022-11-20T00:13:50.031Z,-2.40
2022-11-20T00:14:53.498Z,-2.40
2022-11-20T00:15:59.032Z,-2.50
2022-11-20T00:17:03.918Z,-2.50
2022-11-20T00:18:06.531Z,-2.50
2022-11-20T00:19:10.193Z,-2.60
2022-11-20T00:20:14.049Z,-2.30
2022-11-20T00:21:19.745Z,-4.90
2022-11-20T00:22:24.369Z,-2.90
2022-11-20T00:23:27.953Z,-4.40
2022-11-20T00:24:30.436Z,-1.30
2022-11-20T00:25:35.661Z,-2.60
2022-11-20T00:26:38.367Z,-2.60
2022-11-20T00:27:41.664Z,-2.70
2022-11-20T00:28:49.591Z,-2.60
2022-11-20T00:29:53.303Z,-2.60
2022-11-20T00:31:03.278Z,-2.60
2022-11-20T00:32:10.092Z,-2.60
2022-11-20T00:33:12.394Z,-2.60
2022-11-20T00:34:15.991Z,-2.50
2022-11-20T00:35:18.766Z,-2.50
2022-11-20T00:36:24.413Z,-0.20
2022-11-20T00:37:27.750Z,-0.30
2022-11-20T00:38:30.985Z,-1.30
2022-11-20T00:39:34.933Z,-2.00
2022-11-20T00:40:37.618Z,-2.40
2022-11-20T00:41:40.852Z,-2.40
2022-11-20T00:42:43.294Z,-2.30
2022-11-20T00:43:46.535Z,-4.40
2022-11-20T00:44:49.645Z,-2.40
2022-11-20T00:45:58.230Z,-2.40
2022-11-20T00:47:00.516Z,-2.40
2022-11-20T00:48:05.654Z,-2.30
2022-11-20T00:49:08.076Z,-3.70
2022-11-20T00:50:12.386Z,-2.40
2022-11-20T00:51:17.304Z,-2.40
2022-11-20T00:52:23.291Z,-2.40
2022-11-20T00:53:28.822Z,-2.40
2022-11-20T00:54:32.091Z,-2.30
2022-11-20T00:55:35.586Z,-2.30
2022-11-20T00:56:38.917Z,-2.50
2022-11-20T00:57:41.368Z,-2.40
2022-11-20T00:58:47.523Z,-2.50
2022-11-20T00:59:49.784Z,-2.50
2022-11-20T01:00:53.554Z,-2.50
2022-11-20T01:01:56.152Z,-2.40
2022-11-20T01:02:59.799Z,-2.50
2022-11-20T01:04:04.547Z,-2.50
2022-11-20T01:05:07.480Z,-2.60
2022-11-20T01:06:14.524Z,-2.60
2022-11-20T01:07:17.015Z,-2.60
2022-11-20T01:08:20.461Z,-2.60
2022-11-20T01:09:23.202Z,-2.60
2022-11-20T01:10:26.796Z,-2.60
2022-11-20T01:11:33.643Z,-2.60
2022-11-20T01:12:38.590Z,-1.40
2022-11-20T01:13:43.089Z,-2.60
2022-11-20T01:14:45.662Z,-2.20
2022-11-20T01:15:48.844Z,-2.60
2022-11-20T01:16:53.016Z,-2.70
2022-11-20T01:17:56.645Z,-2.70
2022-11-20T01:19:01.409Z,-2.80
2022-11-20T01:20:06.977Z,-2.80
2022-11-20T01:21:12.376Z,-2.80
2022-11-20T01:22:15.882Z,-2.80
2022-11-20T01:23:18.484Z,-2.80
2022-11-20T01:24:24.199Z,-2.80
2022-11-20T01:25:26.629Z,-2.80
2022-11-20T01:26:31.899Z,-2.70
2022-11-20T01:27:34.600Z,-3.60
2022-11-20T01:28:39.466Z,-2.80
2022-11-20T01:29:41.823Z,-2.80
2022-11-20T01:30:45.200Z,-2.90
2022-11-20T01:31:48.578Z,-1.80
2022-11-20T01:32:51.250Z,-3.00
2022-11-20T01:33:57.175Z,-2.80
2022-11-20T01:35:00.382Z,-2.90
2022-11-20T01:36:08.578Z,-1.40
2022-11-20T01:37:11.838Z,-2.80
2022-11-20T01:38:15.809Z,-2.80
2022-11-20T01:39:21.872Z,-2.80
2022-11-20T01:40:24.553Z,-2.70
2022-11-20T01:41:47.637Z,-2.70
2022-11-20T01:43:23.385Z,-0.40
2022-11-20T01:44:47.051Z,-2.60
2022-11-20T01:46:16.163Z,-2.60
2022-11-20T01:47:25.091Z,-2.70
2022-11-20T01:48:35.957Z,-2.70
2022-11-20T01:49:47.503Z,-2.70
2022-11-20T01:50:51.395Z,-2.80
2022-11-20T01:52:02.700Z,-2.80
2022-11-20T01:53:09.623Z,-2.80
2022-11-20T01:54:21.371Z,-2.80
2022-11-20T01:55:30.469Z,-2.80
2022-11-20T01:56:39.174Z,-2.70
2022-11-20T01:57:42.740Z,-1.80
2022-11-20T01:58:52.513Z,-2.80
2022-11-20T02:00:01.091Z,-2.80
2022-11-20T02:01:07.990Z,-2.70
2022-11-20T02:02:10.901Z,-2.80
2022-11-20T02:03:19.477Z,-2.70
2022-11-20T02:04:23.996Z,-2.60
2022-11-20T02:05:34.987Z,-2.50
2022-11-20T02:06:44.331Z,-2.50
2022-11-20T02:07:52.786Z,-2.40
2022-11-20T02:08:56.420Z,-2.40
2022-11-20T02:09:59.785Z,-2.40
2022-11-20T02:11:02.123Z,0.10
2022-11-20T02:12:27.017Z,-2.50
2022-11-20T02:13:44.567Z,-0.40
2022-11-20T02:14:47.025Z,-2.40
2022-11-20T02:15:50.552Z,-2.50
2022-11-20T02:16:56.236Z,-2.40
2022-11-20T02:18:01.930Z,-2.50
2022-11-20T02:19:10.027Z,-2.40
2022-11-20T02:20:13.781Z,-2.50
2022-11-20T02:21:32.338Z,-2.40
2022-11-20T02:22:48.058Z,-2.30
2022-11-20T02:24:14.989Z,-2.20
2022-11-20T02:25:19.614Z,-2.30
2022-11-20T02:26:26.131Z,-2.30
2022-11-20T02:27:29.848Z,-2.20
2022-11-20T02:28:34.294Z,-2.20
2022-11-20T02:29:44.512Z,-2.20
2022-11-20T02:30:46.826Z,-2.20
2022-11-20T02:31:50.360Z,-2.10
2022-11-20T02:32:52.852Z,-1.10
2022-11-20T02:33:59.722Z,-2.20
2022-11-20T02:35:09.414Z,-2.10
2022-11-20T02:36:18.113Z,-2.10
2022-11-20T02:37:23.853Z,-2.10
2022-11-20T02:38:27.272Z,-2.10
2022-11-20T02:39:31.482Z,-2.10
2022-11-20T02:40:35.509Z,-4.20
2022-11-20T02:41:38.789Z,-1.90
2022-11-20T02:42:42.076Z,-2.00
2022-11-20T02:43:44.476Z,-2.00
2022-11-20T02:44:50.395Z,-2.00
2022-11-20T02:45:55.118Z,-2.10
2022-11-20T02:46:59.652Z,-2.00
2022-11-20T02:48:02.004Z,-2.10
2022-11-20T02:49:06.361Z,-2.00
2022-11-20T02:50:09.276Z,-2.00
2022-11-20T02:51:13.236Z,-1.90
2022-11-20T02:52:15.576Z,-1.90
2022-11-20T02:53:19.383Z,-1.90
2022-11-20T02:54:21.893Z,-1.80
2022-11-20T02:55:26.869Z,-1.80
2022-11-20T02:56:32.774Z,-1.80
2022-11-20T02:57:36.213Z,-1.80
2022-11-20T02:58:38.647Z,-1.80
2022-11-20T02:59:42.320Z,-1.80
2022-11-20T03:00:44.569Z,-1.70
2022-11-20T03:01:51.233Z,-1.70
2022-11-20T03:02:53.563Z,-1.70
2022-11-20T03:03:57.117Z,-1.70
2022-11-20T03:04:59.692Z,-1.70
2022-11-20T03:06:05.566Z,-0.10
2022-11-20T03:07:10.989Z,-1.80
2022-11-20T03:08:13.455Z,-1.80
2022-11-20T03:09:16.885Z,-1.70
2022-11-20T03:10:19.183Z,-1.70
2022-11-20T03:11:24.126Z,-3.20
2022-11-20T03:12:26.929Z,-1.80
2022-11-20T03:13:30.226Z,-1.80
2022-11-20T03:14:32.570Z,-2.10
2022-11-20T03:15:37.581Z,-1.00
2022-11-20T03:16:39.941Z,-1.90
2022-11-20T03:17:43.983Z,-1.90
2022-11-20T03:18:48.967Z,-1.90
2022-11-20T03:19:52.238Z,-1.90
2022-11-20T03:20:59.982Z,-1.90
2022-11-20T03:22:03.148Z,-2.00
2022-11-20T03:23:06.128Z,-2.10
2022-11-20T03:24:09.995Z,-2.10
2022-11-20T03:25:12.335Z,-2.10
2022-11-20T03:26:19.824Z,-2.10
2022-11-20T03:27:23.785Z,-2.10
2022-11-20T03:28:27.567Z,-2.00
2022-11-20T03:29:30.023Z,-3.40
2022-11-20T03:30:33.458Z,-2.10
2022-11-20T03:31:38.857Z,-2.10
2022-11-20T03:32:42.337Z,-1.70
2022-11-20T03:33:45.582Z,-2.20
2022-11-20T03:34:48.802Z,-2.20
2022-11-20T03:35:51.046Z,-2.40
2022-11-20T03:36:56.616Z,-1.20
2022-11-20T03:37:59.490Z,-2.40
2022-11-20T03:39:03.014Z,-2.40
2022-11-20T03:40:06.936Z,-2.40
2022-11-20T03:41:12.972Z,-2.40
2022-11-20T03:42:30.290Z,-0.60
2022-11-20T03:43:38.981Z,-2.30
2022-11-20T03:44:41.229Z,-2.50
2022-11-20T03:45:44.624Z,-2.50
2022-11-20T03:46:46.856Z,-2.50
2022-11-20T03:47:50.487Z,-2.50
2022-11-20T03:48:53.675Z,-2.60
2022-11-20T03:49:56.951Z,-2.50
2022-11-20T03:51:09.813Z,-2.50
2022-11-20T03:52:16.641Z,-2.50
2022-11-20T03:53:19.797Z,-2.60
2022-11-20T03:54:23.485Z,-0.60
2022-11-20T03:55:25.890Z,-2.60
2022-11-20T03:56:31.253Z,-2.60
2022-11-20T03:57:33.596Z,-2.60
2022-11-20T03:58:40.602Z,-2.60
2022-11-20T03:59:43.182Z,-2.70
2022-11-20T04:00:46.590Z,-2.70
2022-11-20T04:01:49.719Z,-2.60
2022-11-20T04:02:53.312Z,-2.60
2022-11-20T04:03:57.544Z,-2.70
2022-11-20T04:05:01.359Z,-2.60
2022-11-20T04:06:05.661Z,-2.60
2022-11-20T04:07:09.194Z,-2.70
2022-11-20T04:08:11.558Z,-2.70
2022-11-20T04:09:16.913Z,-2.80
2022-11-20T04:10:49.125Z,-2.90
2022-11-20T04:11:51.555Z,-2.10
2022-11-20T04:12:55.038Z,-3.00
2022-11-20T04:14:03.578Z,-3.00
2022-11-20T04:15:07.511Z,-3.10
2022-11-20T04:16:11.245Z,-3.10
2022-11-20T04:17:14.624Z,-3.00
2022-11-20T04:18:17.182Z,-3.10
2022-11-20T04:19:21.097Z,-3.00
2022-11-20T04:20:23.554Z,-3.10
2022-11-20T04:21:28.510Z,-3.00
2022-11-20T04:22:31.031Z,-3.00
2022-11-20T04:23:36.730Z,-3.10
2022-11-20T04:24:39.171Z,-4.00
2022-11-20T04:25:42.454Z,-3.10
2022-11-20T04:26:45.141Z,-3.00
2022-11-20T04:27:48.446Z,-3.00
2022-11-20T04:28:51.500Z,-3.00
2022-11-20T04:29:56.232Z,-2.70
2022-11-20T04:31:04.740Z,-3.00
2022-11-20T04:32:08.426Z,-3.10
2022-11-20T04:33:10.626Z,-3.00
2022-11-20T04:34:14.281Z,-3.10
2022-11-20T04:35:18.699Z,-2.50
2022-11-20T04:36:24.106Z,-3.10
2022-11-20T04:37:29.296Z,-3.20
2022-11-20T04:38:32.875Z,-3.30
2022-11-20T04:39:35.276Z,-3.30
2022-11-20T04:40:38.872Z,-3.30
2022-11-20T04:41:41.212Z,-3.20
2022-11-20T04:42:44.949Z,-3.30
2022-11-20T04:43:49.307Z,-2.70
2022-11-20T04:44:52.826Z,-3.20
2022-11-20T04:45:57.811Z,-3.30
2022-11-20T04:47:01.375Z,-3.20
2022-11-20T04:48:04.017Z,-3.20
2022-11-20T04:49:07.993Z,-3.20
2022-11-20T04:50:11.071Z,-3.10
2022-11-20T04:51:14.605Z,-3.10
2022-11-20T04:52:17.235Z,-3.10
2022-11-20T04:53:22.502Z,-3.00
2022-11-20T04:54:25.034Z,-3.00
2022-11-20T04:55:28.282Z,-3.00
2022-11-20T04:56:30.668Z,-3.00
2022-11-20T04:57:34.082Z,-3.00
2022-11-20T04:58:36.748Z,-3.00
2022-11-20T04:59:40.129Z,-3.00
2022-11-20T05:00:42.659Z,-3.00
2022-11-20T05:01:47.428Z,-3.00
2022-11-20T05:02:49.833Z,-3.10
2022-11-20T05:03:55.309Z,-3.10
2022-11-20T05:04:57.564Z,-3.10
2022-11-20T05:06:03.212Z,-3.00
2022-11-20T05:07:05.649Z,-3.00
2022-11-20T05:08:08.986Z,-3.00
2022-11-20T05:09:11.460Z,-2.90
2022-11-20T05:10:14.952Z,-4.20
2022-11-20T05:11:19.576Z,-2.90
2022-11-20T05:12:25.181Z,-2.60
2022-11-20T05:13:28.585Z,-2.90
2022-11-20T05:14:32.260Z,-2.70
2022-11-20T05:15:34.850Z,-2.40
2022-11-20T05:16:38.059Z,-2.90
2022-11-20T05:17:41.954Z,-2.70
2022-11-20T05:18:45.638Z,-2.90
2022-11-20T05:19:51.999Z,-2.70
2022-11-20T05:20:58.340Z,-0.80
2022-11-20T05:22:00.693Z,-2.90
2022-11-20T05:23:05.506Z,-2.90
2022-11-20T05:24:08.081Z,-2.80
2022-11-20T05:25:12.981Z,-2.80
2022-11-20T05:26:18.152Z,-2.80
2022-11-20T05:27:21.500Z,-2.90
2022-11-20T05:28:25.530Z,-2.90
2022-11-20T05:29:28.848Z,-2.90
2022-11-20T05:30:31.449Z,-2.90
2022-11-20T05:31:35.125Z,-2.90
2022-11-20T05:32:37.394Z,-2.80
2022-11-20T05:33:44.461Z,-2.80
2022-11-20T05:34:46.922Z,-2.90
2022-11-20T05:35:51.657Z,-2.80
2022-11-20T05:36:54.954Z,-2.80
2022-11-20T05:37:57.218Z,-2.70
2022-11-20T05:39:01.948Z,-2.90
2022-11-20T05:40:05.322Z,-2.90
2022-11-20T05:41:10.541Z,-2.80
2022-11-20T05:42:31.265Z,-3.50
2022-11-20T05:43:35.949Z,-2.80
2022-11-20T05:44:38.757Z,-2.80
2022-11-20T05:45:41.999Z,-2.10
2022-11-20T05:46:44.660Z,-2.80
2022-11-20T05:47:48.272Z,-2.90
2022-11-20T05:48:52.324Z,-2.80
2022-11-20T05:49:55.654Z,-1.00
2022-11-20T05:50:58.541Z,-2.90
2022-11-20T05:52:01.919Z,-2.80
2022-11-20T05:53:04.465Z,-2.90
2022-11-20T05:54:07.759Z,-1.60
2022-11-20T05:55:10.378Z,-2.90
2022-11-20T05:56:16.165Z,-4.20
2022-11-20T05:57:18.921Z,-2.80
2022-11-20T05:58:22.217Z,-2.80
2022-11-20T05:59:25.621Z,-2.90
2022-11-20T06:00:28.063Z,-2.80
2022-11-20T06:01:31.463Z,-2.90
2022-11-20T06:02:36.580Z,-2.90
2022-11-20T06:03:41.049Z,-2.90
2022-11-20T06:04:44.791Z,-2.40
2022-11-20T06:05:48.477Z,-2.80
2022-11-20T06:06:50.835Z,-2.80
2022-11-20T06:07:54.167Z,-0.70
2022-11-20T06:08:56.946Z,-2.80
2022-11-20T06:10:00.498Z,-2.80
2022-11-20T06:11:05.747Z,-2.70
2022-11-20T06:12:09.330Z,-2.20
2022-11-20T06:13:12.220Z,-2.70
2022-11-20T06:14:16.376Z,-2.70
2022-11-20T06:15:18.854Z,-4.00
2022-11-20T06:16:24.221Z,-2.70
2022-11-20T06:17:26.450Z,-2.70
2022-11-20T06:18:31.167Z,-2.60
2022-11-20T06:19:34.856Z,-2.70
2022-11-20T06:20:42.254Z,-2.70
2022-11-20T06:21:45.584Z,-2.70
2022-11-20T06:22:47.913Z,-2.80
2022-11-20T06:23:55.593Z,-2.70
2022-11-20T06:24:59.268Z,-2.70
2022-11-20T06:26:03.940Z,-2.70
2022-11-20T06:27:07.171Z,-2.60
2022-11-20T06:28:10.522Z,-2.60
2022-11-20T06:29:14.201Z,-2.60
2022-11-20T06:30:16.925Z,-2.50
2022-11-20T06:31:22.967Z,-2.50
2022-11-20T06:32:25.243Z,-2.50
2022-11-20T06:33:29.262Z,-1.90
2022-11-20T06:34:31.801Z,-2.40
2022-11-20T06:35:35.372Z,-0.50
2022-11-20T06:36:39.263Z,-2.20
2022-11-20T06:37:42.549Z,-2.20
2022-11-20T06:38:45.732Z,-2.20
2022-11-20T06:39:49.375Z,-2.20
2022-11-20T06:40:51.810Z,0.50
2022-11-20T06:41:58.797Z,-2.10
2022-11-20T06:43:01.575Z,-2.00
2022-11-20T06:44:06.715Z,-2.00
2022-11-20T06:45:11.496Z,-1.90
2022-11-20T06:46:15.189Z,-1.90
2022-11-20T06:47:18.610Z,-1.80
2022-11-20T06:48:21.247Z,-1.70
2022-11-20T06:49:25.109Z,-1.60
2022-11-20T06:50:27.607Z,-1.60
2022-11-20T06:51:31.098Z,-1.60
2022-11-20T06:52:38.284Z,-1.60
2022-11-20T06:53:43.993Z,-1.30
2022-11-20T06:54:46.408Z,-1.30
2022-11-20T06:55:51.213Z,-1.30
2022-11-20T06:56:53.564Z,-1.20
2022-11-20T06:57:56.913Z,-1.10
2022-11-20T06:59:00.537Z,-1.10
2022-11-20T07:00:03.213Z,-2.70
2022-11-20T07:01:09.329Z,-1.00
2022-11-20T07:02:12.945Z,-1.00
2022-11-20T07:03:16.329Z,-0.90
2022-11-20T07:04:19.686Z,-0.90
2022-11-20T07:05:22.530Z,-0.80
2022-11-20T07:06:28.635Z,-0.80
2022-11-20T07:07:31.915Z,-0.70
2022-11-20T07:08:37.308Z,-0.30
2022-11-20T07:09:42.914Z,-0.80
2022-11-20T07:10:45.369Z,-0.80
2022-11-20T07:11:49.072Z,-0.70
2022-11-20T07:12:51.932Z,-0.60
2022-11-20T07:13:55.144Z,0.20
2022-11-20T07:15:01.245Z,-0.40
2022-11-20T07:16:07.895Z,1.20
2022-11-20T07:17:11.597Z,-0.20
2022-11-20T07:18:14.078Z,-0.10
2022-11-20T07:19:20.362Z,-1.60
2022-11-20T07:20:23.055Z,0.10
2022-11-20T07:21:26.392Z,0.20
2022-11-20T07:22:28.845Z,0.30
2022-11-20T07:23:32.183Z,0.50
2022-11-20T07:24:36.041Z,0.50
2022-11-20T07:25:39.905Z,0.60
2022-11-20T07:26:48.303Z,0.70
2022-11-20T07:27:51.117Z,0.50
2022-11-20T07:28:56.717Z,0.50
2022-11-20T07:29:59.385Z,0.50
2022-11-20T07:31:03.126Z,0.60
2022-11-20T07:32:06.296Z,0.60
2022-11-20T07:33:09.901Z,0.60
2022-11-20T07:34:12.263Z,0.60
2022-11-20T07:35:15.798Z,0.70
2022-11-20T07:36:19.109Z,0.80
2022-11-20T07:37:21.802Z,0.90
2022-11-20T07:38:25.510Z,0.90
2022-11-20T07:39:27.817Z,1.00
2022-11-20T07:40:32.703Z,1.10
2022-11-20T07:41:35.011Z,3.50
2022-11-20T07:42:38.685Z,1.30
2022-11-20T07:43:41.830Z,1.50
2022-11-20T07:44:45.449Z,1.50
2022-11-20T07:45:47.770Z,1.60
2022-11-20T07:46:51.087Z,1.70
2022-11-20T07:47:53.736Z,1.80
2022-11-20T07:48:57.728Z,1.90
2022-11-20T07:50:00.344Z,1.70
2022-11-20T07:51:03.956Z,1.80
2022-11-20T07:52:06.300Z,1.80
2022-11-20T07:53:10.834Z,1.90
2022-11-20T07:54:13.117Z,1.80
2022-11-20T07:55:17.087Z,1.90
2022-11-20T07:56:24.178Z,3.50
2022-11-20T07:57:28.487Z,1.70
2022-11-20T07:58:34.318Z,1.70
2022-11-20T07:59:37.958Z,1.50
2022-11-20T08:00:42.260Z,1.30
2022-11-20T08:01:45.653Z,2.50
2022-11-20T08:02:53.126Z,1.40
2022-11-20T08:03:56.790Z,1.30
2022-11-20T08:05:02.031Z,1.30
2022-11-20T08:06:06.603Z,1.20
2022-11-20T08:07:10.141Z,1.30
2022-11-20T08:08:13.450Z,1.30
2022-11-20T08:09:16.154Z,1.30
2022-11-20T08:10:21.821Z,1.30
2022-11-20T08:11:46.913Z,1.30
2022-11-20T08:13:09.349Z,1.30
2022-11-20T08:14:14.490Z,1.30
2022-11-20T08:15:18.508Z,1.30
2022-11-20T08:16:22.589Z,1.30
2022-11-20T08:17:26.068Z,1.30
2022-11-20T08:18:31.623Z,1.40
2022-11-20T08:19:35.651Z,0.70
2022-11-20T08:20:38.381Z,1.50
2022-11-20T08:21:42.503Z,2.60
2022-11-20T08:22:47.341Z,1.80
2022-11-20T08:23:50.821Z,2.00
2022-11-20T08:24:53.114Z,2.10
2022-11-20T08:25:56.668Z,1.80
2022-11-20T08:27:02.326Z,2.40
2022-11-20T08:28:16.844Z,2.50
2022-11-20T08:29:24.355Z,2.40
2022-11-20T08:30:29.268Z,2.40
2022-11-20T08:31:32.007Z,2.70
2022-11-20T08:32:38.454Z,1.10
2022-11-20T08:33:42.015Z,2.90
2022-11-20T08:34:47.423Z,3.00
2022-11-20T08:35:50.756Z,3.10
2022-11-20T08:36:54.246Z,3.10
2022-11-20T08:37:56.911Z,3.00
2022-11-20T08:39:00.198Z,3.10
2022-11-20T08:40:02.493Z,3.00
2022-11-20T08:41:26.671Z,4.90
2022-11-20T08:42:35.710Z,3.50
2022-11-20T08:43:39.009Z,3.10
2022-11-20T08:44:44.444Z,3.10
2022-11-20T08:45:46.903Z,3.20
2022-11-20T08:46:50.469Z,3.20
2022-11-20T08:47:53.459Z,3.20
2022-11-20T08:48:56.945Z,3.30
2022-11-20T08:50:00.199Z,3.30
2022-11-20T08:51:06.716Z,3.40
2022-11-20T08:52:10.016Z,3.50
2022-11-20T08:53:12.740Z,3.50
2022-11-20T08:54:16.514Z,3.60
2022-11-20T08:55:19.007Z,3.60
2022-11-20T08:56:23.107Z,3.70
2022-11-20T08:57:25.542Z,3.60
2022-11-20T08:58:31.162Z,3.40
2022-11-20T09:00:05.505Z,3.10
2022-11-20T09:00:58.912Z,2.90
2022-11-20T09:02:02.337Z,2.80
2022-11-20T09:03:04.825Z,2.70
2022-11-20T09:04:08.513Z,2.60
2022-11-20T09:05:11.084Z,2.40
2022-11-20T09:06:17.136Z,2.30
2022-11-20T09:07:19.439Z,2.40
2022-11-20T09:08:22.793Z,2.30
2022-11-20T09:09:26.484Z,2.30
2022-11-20T09:10:30.460Z,2.70
2022-11-20T09:11:33.840Z,2.30
2022-11-20T09:12:39.415Z,2.50
2022-11-20T09:13:43.184Z,2.50
2022-11-20T09:14:49.773Z,2.30
2022-11-20T09:15:58.825Z,2.30
2022-11-20T09:17:02.768Z,2.30
2022-11-20T09:18:05.879Z,2.20
2022-11-20T09:20:34.186Z,2.10
2022-11-20T09:21:38.384Z,2.00
2022-11-20T09:22:42.719Z,2.00
2022-11-20T09:23:48.902Z,1.50
2022-11-20T09:24:55.077Z,2.20
2022-11-20T09:26:00.971Z,2.30
2022-11-20T09:27:06.283Z,2.20
2022-11-20T09:28:08.987Z,2.10
2022-11-20T09:29:13.771Z,2.10
2022-11-20T09:30:17.154Z,-0.20
2022-11-20T09:31:26.985Z,1.90
2022-11-20T09:32:29.601Z,1.90
2022-11-20T09:33:33.304Z,2.00
2022-11-20T09:34:36.835Z,2.00
2022-11-20T09:35:39.795Z,2.10
2022-11-20T09:36:43.388Z,2.00
2022-11-20T09:37:47.319Z,2.20
2022-11-20T09:38:53.134Z,2.20
2022-11-20T09:39:56.382Z,1.50
2022-11-20T09:41:05.139Z,2.30
2022-11-20T09:42:35.378Z,2.40
2022-11-20T09:43:53.948Z,2.30
2022-11-20T09:45:40.196Z,2.30
2022-11-20T09:46:54.207Z,2.20
2022-11-20T09:48:20.733Z,2.20
2022-11-20T09:49:38.904Z,2.20
2022-11-20T09:50:51.999Z,2.30
2022-11-20T09:52:00.919Z,2.30
2022-11-20T09:53:14.628Z,2.40
2022-11-20T09:54:21.382Z,2.40
2022-11-20T09:55:25.776Z,2.50
2022-11-20T09:56:32.994Z,2.60
2022-11-20T09:57:40.349Z,2.70
2022-11-20T09:58:47.940Z,2.50
2022-11-20T09:59:58.107Z,2.50
2022-11-20T10:01:14.586Z,2.50
2022-11-20T10:02:28.422Z,2.50
2022-11-20T10:03:44.764Z,2.60
2022-11-20T10:04:55.375Z,4.50
2022-11-20T10:06:03.724Z,2.50
2022-11-20T10:07:32.619Z,2.40
2022-11-20T10:08:46.906Z,2.30
2022-11-20T10:09:54.517Z,2.40
2022-11-20T10:11:08.019Z,2.40
2022-11-20T10:12:22.781Z,2.50
2022-11-20T10:13:42.280Z,1.60
2022-11-20T10:15:01.320Z,3.00
2022-11-20T10:16:23.599Z,2.80
2022-11-20T10:17:56.293Z,2.90
2022-11-20T10:19:16.141Z,2.80
2022-11-20T10:20:32.073Z,2.70
2022-11-20T10:21:55.885Z,2.60
2022-11-20T10:23:25.660Z,2.50
2022-11-20T10:24:47.122Z,2.40
2022-11-20T10:26:02.082Z,3.60
2022-11-20T10:27:25.407Z,2.40
2022-11-20T10:28:48.211Z,2.50
2022-11-20T10:30:05.197Z,2.50
2022-11-20T10:31:19.527Z,2.60
2022-11-20T10:32:35.718Z,2.70
2022-11-20T10:34:10.506Z,2.60
2022-11-20T10:35:21.311Z,2.50
2022-11-20T10:36:29.415Z,2.40
2022-11-20T10:37:37.360Z,2.20
2022-11-20T10:38:46.989Z,2.00
2022-11-20T10:39:58.600Z,1.90
2022-11-20T10:41:18.986Z,2.00
2022-11-20T10:42:33.213Z,2.10
2022-11-20T10:43:36.696Z,2.30
2022-11-20T10:45:06.988Z,2.30
2022-11-20T10:46:19.696Z,2.40
2022-11-20T10:47:27.749Z,2.50
2022-11-20T10:48:34.448Z,2.60
2022-11-20T10:49:39.637Z,2.80
2022-11-20T10:51:02.055Z,2.80
2022-11-20T10:52:18.110Z,2.80
2022-11-20T10:53:56.090Z,2.90
2022-11-20T10:55:10.600Z,2.80
2022-11-20T10:56:21.365Z,4.80
2022-11-20T10:57:41.722Z,2.90
2022-11-20T10:58:55.677Z,2.90
2022-11-20T11:00:06.406Z,3.00
2022-11-20T11:01:19.795Z,3.00
2022-11-20T11:02:25.552Z,4.60
2022-11-20T11:03:31.977Z,2.80
2022-11-20T11:04:42.662Z,2.80
2022-11-20T11:05:55.993Z,2.80
2022-11-20T11:07:08.784Z,2.90
2022-11-20T11:08:16.594Z,2.90
2022-11-20T11:09:28.614Z,3.00
2022-11-20T11:10:43.477Z,3.10
2022-11-20T11:11:45.892Z,3.10
2022-11-20T11:12:50.284Z,4.00
2022-11-20T11:13:53.106Z,3.10
2022-11-20T11:14:59.020Z,3.10
2022-11-20T11:16:02.369Z,3.20
2022-11-20T11:17:06.989Z,3.30
2022-11-20T11:18:13.189Z,3.30
2022-11-20T11:19:15.793Z,3.40
2022-11-20T11:20:21.177Z,3.40
2022-11-20T11:21:27.059Z,3.40
2022-11-20T11:22:31.024Z,3.40
2022-11-20T11:23:41.247Z,1.90
2022-11-20T11:24:53.943Z,3.40
2022-11-20T11:26:05.903Z,2.70
2022-11-20T11:27:17.190Z,3.40
2022-11-20T11:28:25.957Z,3.40
2022-11-20T11:29:31.005Z,3.50
2022-11-20T11:30:44.678Z,3.60
2022-11-20T11:31:48.070Z,3.70
2022-11-20T11:32:52.027Z,3.60
2022-11-20T11:34:07.399Z,3.60
2022-11-20T11:35:27.709Z,3.70
2022-11-20T11:36:36.961Z,3.80
2022-11-20T11:37:41.884Z,3.70
2022-11-20T11:38:46.470Z,3.70
2022-11-20T11:40:03.909Z,3.70
2022-11-20T11:41:21.606Z,3.70
2022-11-20T11:42:24.232Z,3.60
2022-11-20T11:43:49.655Z,3.60
2022-11-20T11:45:08.437Z,3.70
2022-11-20T11:46:28.459Z,3.60
2022-11-20T11:47:34.690Z,3.60
2022-11-20T11:48:38.412Z,5.80
2022-11-20T11:49:42.931Z,3.50
2022-11-20T11:50:53.917Z,3.40
2022-11-20T11:52:15.302Z,3.50
2022-11-20T11:53:21.503Z,3.50
2022-11-20T11:54:29.458Z,3.40
2022-11-20T11:55:39.487Z,3.30
2022-11-20T11:56:42.660Z,3.10
2022-11-20T11:57:56.657Z,2.90
2022-11-20T11:59:07.816Z,2.90
2022-11-20T12:00:14.593Z,2.90
2022-11-20T12:01:30.232Z,4.20
2022-11-20T12:02:44.118Z,2.90
2022-11-20T12:04:02.443Z,2.90
2022-11-20T12:05:18.972Z,2.80
2022-11-20T12:06:22.810Z,2.80
2022-11-20T12:07:46.777Z,2.90
2022-11-20T12:08:58.491Z,2.90
2022-11-20T12:10:04.216Z,2.80
2022-11-20T12:11:16.558Z,2.90
2022-11-20T12:12:26.651Z,2.80
2022-11-20T12:13:44.664Z,3.20
2022-11-20T12:14:51.391Z,3.10
2022-11-20T12:15:56.137Z,3.00
2022-11-20T12:16:58.778Z,3.00
2022-11-20T12:18:02.751Z,3.00
2022-11-20T12:19:14.210Z,2.90
2022-11-20T12:20:17.452Z,2.90
2022-11-20T12:21:29.115Z,2.90
2022-11-20T12:22:48.301Z,2.90
2022-11-20T12:24:12.450Z,2.80
2022-11-20T12:25:24.540Z,2.80
2022-11-20T12:26:48.684Z,2.80
2022-11-20T12:28:18.671Z,2.70
2022-11-20T12:29:40.738Z,2.70
2022-11-20T12:30:58.679Z,2.60
2022-11-20T12:32:33.694Z,2.90
2022-11-20T12:34:00.084Z,2.70
2022-11-20T12:35:21.643Z,2.70
2022-11-20T12:36:38.867Z,2.80
2022-11-20T12:37:52.681Z,2.80
2022-11-20T12:39:35.821Z,2.80
2022-11-20T12:40:55.303Z,2.80
2022-11-20T12:42:42.801Z,2.90
2022-11-20T12:44:18.384Z,2.90
2022-11-20T12:45:48.318Z,3.00
2022-11-20T12:47:06.581Z,3.00
2022-11-20T12:48:44.967Z,3.00
2022-11-20T12:50:04.558Z,2.90
2022-11-20T12:51:40.977Z,2.70
2022-11-20T12:52:53.722Z,2.60
2022-11-20T12:54:23.628Z,2.70
2022-11-20T12:55:43.190Z,2.60
2022-11-20T12:57:03.652Z,2.50
2022-11-20T12:58:20.418Z,2.50
2022-11-20T12:59:46.732Z,2.40
2022-11-20T13:01:01.023Z,2.40
2022-11-20T13:02:19.888Z,2.40
2022-11-20T13:03:44.780Z,2.40
2022-11-20T13:05:19.497Z,2.50
2022-11-20T13:06:26.052Z,2.50
2022-11-20T13:07:31.646Z,2.60
2022-11-20T13:08:36.925Z,2.60
2022-11-20T13:09:47.503Z,2.60
2022-11-20T13:11:02.602Z,2.50
2022-11-20T13:12:16.388Z,2.40
2022-11-20T13:13:30.249Z,0.70
2022-11-20T13:14:42.813Z,2.40
2022-11-20T13:15:56.746Z,2.30
2022-11-20T13:17:08.674Z,2.40
2022-11-20T13:18:14.120Z,2.40
2022-11-20T13:19:19.663Z,2.40
2022-11-20T13:20:23.562Z,2.40
2022-11-20T13:21:38.213Z,2.30
2022-11-20T13:22:47.733Z,1.80
2022-11-20T13:23:51.163Z,2.30
2022-11-20T13:24:54.873Z,2.40
2022-11-20T13:26:17.161Z,2.20
2022-11-20T13:27:24.316Z,2.20
2022-11-20T13:28:30.465Z,4.00
2022-11-20T13:29:37.944Z,2.20
2022-11-20T13:30:53.500Z,2.20
2022-11-20T13:32:08.141Z,2.20
2022-11-20T13:33:27.685Z,2.30
2022-11-20T13:34:31.112Z,2.40
2022-11-20T13:35:36.736Z,2.50
2022-11-20T13:36:54.543Z,2.50
2022-11-20T13:38:06.737Z,2.60
2022-11-20T13:39:11.396Z,2.50
2022-11-20T13:40:23.061Z,2.50
2022-11-20T13:41:32.681Z,2.50
2022-11-20T13:42:40.987Z,2.40
2022-11-20T13:43:44.518Z,2.30
2022-11-20T13:44:52.706Z,2.30
2022-11-20T13:46:02.260Z,2.30
2022-11-20T13:47:21.231Z,2.30
2022-11-20T13:48:27.714Z,2.20
2022-11-20T13:49:41.025Z,2.20
2022-11-20T13:51:02.798Z,2.20
2022-11-20T13:52:43.191Z,2.20
2022-11-20T13:54:07.247Z,2.20
2022-11-20T13:55:25.918Z,2.20
2022-11-20T13:56:46.085Z,2.20
2022-11-20T13:58:18.617Z,2.30
2022-11-20T13:59:40.860Z,2.30
2022-11-20T14:00:54.762Z,2.20
2022-11-20T14:02:03.588Z,2.20
2022-11-20T14:03:15.877Z,2.20
2022-11-20T14:04:28.677Z,3.40
2022-11-20T14:05:39.613Z,2.30
2022-11-20T14:06:47.948Z,2.30
2022-11-20T14:07:56.115Z,3.90
2022-11-20T14:09:01.932Z,2.20
2022-11-20T14:10:08.005Z,2.20
2022-11-20T14:11:19.072Z,2.10
2022-11-20T14:12:39.218Z,2.00
2022-11-20T14:14:04.638Z,2.00
2022-11-20T14:15:28.077Z,2.00
2022-11-20T14:16:36.032Z,2.20
2022-11-20T14:17:40.650Z,1.40
2022-11-20T14:18:43.099Z,2.20
2022-11-20T14:19:52.829Z,2.00
2022-11-20T14:21:03.459Z,1.90
2022-11-20T14:22:19.783Z,1.90
2022-11-20T14:23:30.286Z,1.80
2022-11-20T14:24:32.903Z,1.90
2022-11-20T14:25:38.163Z,1.90
2022-11-20T14:26:47.099Z,1.80
2022-11-20T14:27:54.989Z,1.80
2022-11-20T14:28:59.051Z,1.70
2022-11-20T14:30:03.270Z,1.70
2022-11-20T14:31:07.026Z,1.80
2022-11-20T14:32:11.618Z,1.70
2022-11-20T14:33:17.663Z,1.70
2022-11-20T14:34:24.599Z,1.80
2022-11-20T14:35:31.497Z,2.00
2022-11-20T14:36:34.784Z,1.80
2022-11-20T14:37:41.583Z,1.70
2022-11-20T14:38:46.384Z,1.60
2022-11-20T14:39:53.031Z,1.60
2022-11-20T14:41:08.143Z,1.60
2022-11-20T14:42:20.233Z,1.50
2022-11-20T14:43:30.548Z,1.50
2022-11-20T14:44:38.398Z,1.50
2022-11-20T14:45:42.425Z,1.40
2022-11-20T14:46:46.275Z,1.50